Time;durP1;ratioP1;P1;durP2;ratioP2;P2;SDS_P1;SDS_P2;PMS_P1;PMS_P2;Temp;Humidity;BMP_temperature;BMP_pressure;BME280_temperature;BME280_humidity;BME280_pressure;Samples;Min_cycle;Max_cycle;Signal;HPM_P1;HPM_P2
2022/04/11 00:01:50;;;;;;;3.43;3.13;;;8.50;57.90;;;;;;6323792;28;20899;-61
2022/04/11 00:04:53;;;;;;;3.70;3.40;;;8.50;58.00;;;;;;6323200;28;20465;-60
2022/04/11 00:07:56;;;;;;;4.20;3.80;;;8.50;58.10;;;;;;6323445;28;20476;-60
2022/04/11 00:11:00;;;;;;;5.87;3.13;;;8.50;58.10;;;;;;6323843;28;20472;-60
2022/04/11 00:14:05;;;;;;;4.37;2.90;;;8.50;58.20;;;;;;6318365;28;20468;-59
2022/04/11 00:17:08;;;;;;;4.63;3.40;;;8.50;58.40;;;;;;6324351;28;20479;-59
2022/04/11 00:20:11;;;;;;;4.63;3.20;;;8.50;58.40;;;;;;6327999;28;20475;-59
2022/04/11 00:23:15;;;;;;;3.33;3.00;;;8.50;58.80;;;;;;6330272;28;20487;-59
2022/04/11 00:26:18;;;;;;;5.43;3.13;;;8.50;58.90;;;;;;6329632;28;20448;-59
2022/04/11 00:29:22;;;;;;;3.30;2.53;;;8.50;59.00;;;;;;6331669;28;20440;-61
2022/04/11 00:32:25;;;;;;;3.27;2.97;;;8.40;58.90;;;;;;6331206;28;20905;-62
2022/04/11 00:35:28;;;;;;;5.73;3.43;;;8.40;59.00;;;;;;6330084;28;20444;-61
2022/04/11 00:38:31;;;;;;;6.40;2.90;;;8.50;59.30;;;;;;6329147;28;20467;-62
2022/04/11 00:41:34;;;;;;;3.30;3.07;;;8.40;59.40;;;;;;6329019;28;20475;-60
2022/04/11 00:44:39;;;;;;;4.13;3.33;;;8.40;59.60;;;;;;6319258;28;20480;-60
2022/04/11 00:47:45;;;;;;;3.53;3.23;;;8.40;59.30;;;;;;6328857;28;20476;-60
2022/04/11 00:50:48;;;;;;;3.50;3.10;;;8.40;59.60;;;;;;6328801;28;20469;-59
2022/04/11 00:53:53;;;;;;;4.40;3.10;;;8.30;60.00;;;;;;6328666;28;20471;-59
2022/04/11 00:56:57;;;;;;;4.03;3.20;;;8.40;60.50;;;;;;6328688;28;20979;-59
2022/04/11 01:00:03;;;;;;;3.73;3.00;;;8.30;60.50;;;;;;6328220;28;20894;-59
2022/04/11 01:03:06;;;;;;;4.50;3.50;;;8.20;60.00;;;;;;6328454;28;20951;-59
2022/04/11 01:06:09;;;;;;;5.20;3.20;;;8.20;60.50;;;;;;6328822;28;20468;-61
2022/04/11 01:09:13;;;;;;;3.90;3.37;;;8.00;60.70;;;;;;6328757;28;20479;-61
2022/04/11 01:12:17;;;;;;;3.00;2.70;;;8.00;61.30;;;;;;6328880;28;20472;-61
2022/04/11 01:15:21;;;;;;;3.50;3.20;;;8.10;62.10;;;;;;6328300;28;20479;-61
2022/04/11 01:18:25;;;;;;;5.30;3.53;;;8.10;62.10;;;;;;6327730;28;20503;-61
2022/04/11 01:21:30;;;;;;;4.53;3.60;;;8.10;62.40;;;;;;6328197;28;20475;-61
2022/04/11 01:24:36;;;;;;;3.20;2.90;;;8.10;63.00;;;;;;6327919;28;20938;-62
2022/04/11 01:27:39;;;;;;;3.50;3.20;;;8.10;63.00;;;;;;6328869;28;20483;-61
2022/04/11 01:30:42;;;;;;;5.53;2.90;;;8.00;63.20;;;;;;6327657;28;20816;-61
2022/04/11 01:33:45;;;;;;;3.10;2.87;;;8.10;63.50;;;;;;6327419;28;20480;-61
2022/04/11 01:36:50;;;;;;;4.23;2.50;;;8.00;63.20;;;;;;6327965;28;20788;-61
2022/04/11 01:39:53;;;;;;;3.07;2.77;;;8.00;63.50;;;;;;6327199;28;20475;-61
2022/04/11 01:42:56;;;;;;;2.53;2.33;;;8.00;63.80;;;;;;6327556;28;20538;-61
2022/04/11 01:45:59;;;;;;;3.00;2.70;;;8.00;64.20;;;;;;6327465;28;20479;-61
2022/04/11 01:49:02;;;;;;;3.23;2.70;;;8.00;64.40;;;;;;6322242;28;20479;-62
2022/04/11 01:52:08;;;;;;;2.97;2.63;;;8.00;64.70;;;;;;6327731;28;20473;-62
2022/04/11 01:55:11;;;;;;;2.93;2.60;;;7.90;64.80;;;;;;6326962;28;20487;-62
2022/04/11 01:58:19;;;;;;;3.20;2.63;;;7.90;64.70;;;;;;6326952;28;21083;-62
2022/04/11 02:01:22;;;;;;;3.83;2.93;;;7.70;64.90;;;;;;6327257;28;20472;-62
2022/04/11 02:04:28;;;;;;;2.63;2.43;;;7.70;65.20;;;;;;6326810;28;21011;-62
2022/04/11 02:07:33;;;;;;;3.20;2.10;;;7.50;66.00;;;;;;6326860;28;20483;-61
2022/04/11 02:10:37;;;;;;;4.53;2.30;;;7.40;66.40;;;;;;6327094;28;20465;-61
2022/04/11 02:13:41;;;;;;;2.80;2.60;;;7.30;66.80;;;;;;6326972;28;20940;-61
2022/04/11 02:16:44;;;;;;;3.13;2.90;;;7.30;66.90;;;;;;6327012;28;20468;-62
2022/04/11 02:19:47;;;;;;;3.10;2.43;;;7.20;67.10;;;;;;6326714;28;20476;-62
2022/04/11 02:22:53;;;;;;;2.80;2.60;;;7.20;67.70;;;;;;6326280;28;20479;-62
2022/04/11 02:25:56;;;;;;;2.97;2.43;;;7.20;68.10;;;;;;6326688;28;20465;-62
2022/04/11 02:28:59;;;;;;;3.90;2.73;;;7.10;68.50;;;;;;6326344;28;20475;-62
2022/04/11 02:32:03;;;;;;;2.70;2.40;;;7.10;68.80;;;;;;6326104;28;20538;-62
2022/04/11 02:35:06;;;;;;;4.00;3.10;;;7.10;69.20;;;;;;6326194;28;20478;-62
2022/04/11 02:38:11;;;;;;;4.17;3.23;;;7.00;69.60;;;;;;6326492;28;20475;-62
2022/04/11 02:41:14;;;;;;;3.80;3.03;;;7.00;69.80;;;;;;6325396;28;20807;-63
2022/04/11 02:44:17;;;;;;;2.90;2.47;;;6.90;70.10;;;;;;6326315;28;20471;-63
2022/04/11 02:47:21;;;;;;;2.53;2.33;;;6.90;70.40;;;;;;6326392;28;20456;-63
2022/04/11 02:50:24;;;;;;;2.93;2.73;;;6.80;71.00;;;;;;6326278;28;20467;-64
2022/04/11 02:53:28;;;;;;;3.47;3.13;;;6.70;71.70;;;;;;6321138;28;20469;-63
2022/04/11 02:56:31;;;;;;;3.40;2.87;;;6.70;72.30;;;;;;6325849;28;20443;-64
2022/04/11 02:59:35;;;;;;;4.60;2.70;;;6.60;72.20;;;;;;6326080;28;20473;-63
2022/04/11 03:02:38;;;;;;;4.47;3.07;;;6.50;72.90;;;;;;6325674;28;20475;-63
2022/04/11 03:05:42;;;;;;;3.70;2.90;;;6.40;73.70;;;;;;6325904;28;20553;-63
2022/04/11 03:08:47;;;;;;;9.20;3.83;;;6.40;74.20;;;;;;6325928;28;20471;-63
2022/04/11 03:11:50;;;;;;;3.00;2.70;;;6.30;74.90;;;;;;6325321;28;20795;-63
2022/04/11 03:14:53;;;;;;;4.93;3.33;;;6.30;75.60;;;;;;6325270;28;20479;-63
2022/04/11 03:17:56;;;;;;;3.87;3.13;;;6.20;76.10;;;;;;6325324;28;20966;-63
2022/04/11 03:20:59;;;;;;;5.30;3.67;;;6.10;76.80;;;;;;6325594;28;20472;-63
2022/04/11 03:24:05;;;;;;;5.53;3.83;;;5.90;77.60;;;;;;6324907;28;20823;-63
2022/04/11 03:27:08;;;;;;;6.13;3.93;;;5.80;78.70;;;;;;6325338;28;20464;-63
2022/04/11 03:30:12;;;;;;;6.23;3.20;;;5.70;79.20;;;;;;6325210;28;20466;-63
2022/04/11 03:33:16;;;;;;;3.20;2.90;;;5.80;79.90;;;;;;6325239;28;20484;-63
2022/04/11 03:36:19;;;;;;;4.10;3.23;;;5.80;80.50;;;;;;6325259;28;20468;-63
2022/04/11 03:39:23;;;;;;;4.23;3.83;;;5.90;80.60;;;;;;6324946;28;20495;-63
2022/04/11 03:42:27;;;;;;;4.03;3.10;;;5.90;80.50;;;;;;6324552;28;20936;-62
2022/04/11 03:45:30;;;;;;;3.47;3.17;;;5.80;80.40;;;;;;6324896;28;20494;-63
2022/04/11 03:48:33;;;;;;;3.90;2.87;;;5.80;81.20;;;;;;6324686;28;20812;-63
2022/04/11 03:51:36;;;;;;;4.17;3.30;;;5.80;80.60;;;;;;6324847;28;20483;-62
2022/04/11 03:54:40;;;;;;;3.90;3.60;;;5.80;80.80;;;;;;6323607;28;20471;-62
2022/04/11 03:57:44;;;;;;;3.83;2.93;;;5.80;80.80;;;;;;6314244;28;20816;-62
2022/04/11 04:00:47;;;;;;;3.47;3.17;;;5.80;80.90;;;;;;6324480;28;20785;-62
2022/04/11 04:03:50;;;;;;;3.27;2.93;;;5.80;81.20;;;;;;6324753;28;20547;-62
2022/04/11 04:06:53;;;;;;;3.43;3.23;;;5.80;81.00;;;;;;6324874;28;20475;-62
2022/04/11 04:09:57;;;;;;;7.70;3.10;;;5.80;81.00;;;;;;6324648;28;20479;-65
2022/04/11 04:13:01;;;;;;;2.83;2.63;;;5.70;80.80;;;;;;6324224;28;20568;-62
2022/04/11 04:16:05;;;;;;;4.47;3.27;;;5.70;81.10;;;;;;6324129;28;20479;-61
2022/04/11 04:19:08;;;;;;;3.87;3.10;;;5.70;81.10;;;;;;6324121;28;20474;-61
2022/04/11 04:22:11;;;;;;;3.80;3.50;;;5.60;81.40;;;;;;6324157;28;20488;-62
2022/04/11 04:25:15;;;;;;;5.00;2.77;;;5.60;81.60;;;;;;6324533;28;20830;-62
2022/04/11 04:28:18;;;;;;;6.20;3.20;;;5.60;81.40;;;;;;6324287;28;20452;-61
2022/04/11 04:31:25;;;;;;;3.83;3.43;;;5.60;81.50;;;;;;6324064;28;20464;-62
2022/04/11 04:34:30;;;;;;;7.00;4.13;;;5.60;81.60;;;;;;6323852;28;20512;-63
2022/04/11 04:37:33;;;;;;;4.30;3.10;;;5.60;81.60;;;;;;6323885;28;20477;-62
2022/04/11 04:40:38;;;;;;;3.30;3.00;;;5.60;81.70;;;;;;6325051;28;20487;-62
2022/04/11 04:43:41;;;;;;;4.97;3.30;;;5.60;82.20;;;;;;6324458;28;20482;-62
2022/04/11 04:46:44;;;;;;;4.50;3.57;;;5.50;82.30;;;;;;6323944;28;20479;-61
2022/04/11 04:49:47;;;;;;;3.80;3.27;;;5.50;82.60;;;;;;6323778;28;20524;-61
2022/04/11 04:52:51;;;;;;;7.60;3.87;;;5.50;82.80;;;;;;6324088;28;20491;-63
2022/04/11 04:55:55;;;;;;;3.80;2.80;;;5.60;82.80;;;;;;6323260;28;20857;-63
2022/04/11 04:58:58;;;;;;;4.93;3.80;;;5.60;82.50;;;;;;6323535;28;20955;-63
2022/04/11 05:02:02;;;;;;;9.33;4.30;;;5.60;82.10;;;;;;6318576;28;20487;-63
2022/04/11 05:05:07;;;;;;;3.53;2.80;;;5.60;81.60;;;;;;6324850;28;20475;-63
2022/04/11 05:08:10;;;;;;;3.50;3.17;;;5.60;81.10;;;;;;6327721;28;20497;-62
2022/04/11 05:11:14;;;;;;;6.60;3.80;;;5.60;80.70;;;;;;6328169;28;20478;-61
2022/04/11 05:14:17;;;;;;;3.70;3.10;;;5.60;80.50;;;;;;6327908;28;20805;-63
2022/04/11 05:17:21;;;;;;;4.67;3.17;;;5.60;80.60;;;;;;6327500;28;20443;-62
2022/04/11 05:20:24;;;;;;;3.93;3.63;;;5.60;80.80;;;;;;6328207;28;20480;-62
2022/04/11 05:23:27;;;;;;;3.47;3.17;;;5.60;80.80;;;;;;6326733;28;20482;-62
2022/04/11 05:26:32;;;;;;;4.60;3.23;;;5.60;80.60;;;;;;6328556;28;20441;-63
2022/04/11 05:29:35;;;;;;;4.33;2.83;;;5.60;81.00;;;;;;6327999;28;20459;-63
2022/04/11 05:32:38;;;;;;;3.23;2.93;;;5.60;80.90;;;;;;6326622;28;20791;-62
2022/04/11 05:35:41;;;;;;;3.70;3.20;;;5.60;81.50;;;;;;6325760;28;20809;-62
2022/04/11 05:38:44;;;;;;;3.70;3.10;;;5.60;81.60;;;;;;6326161;28;20470;-63
2022/04/11 05:41:48;;;;;;;5.90;3.40;;;5.70;81.70;;;;;;6325932;28;20456;-61
2022/04/11 05:44:52;;;;;;;4.23;3.67;;;5.70;81.70;;;;;;6325728;28;20487;-60
2022/04/11 05:47:55;;;;;;;7.00;3.80;;;5.80;81.70;;;;;;6327113;28;20460;-60
2022/04/11 05:50:59;;;;;;;4.43;3.10;;;6.00;81.40;;;;;;6327661;28;20471;-60
2022/04/11 05:54:02;;;;;;;4.10;3.40;;;6.10;81.00;;;;;;6327142;28;20473;-60
2022/04/11 05:57:07;;;;;;;4.57;3.10;;;6.30;80.70;;;;;;6327370;28;20479;-60
2022/04/11 06:00:11;;;;;;;5.63;3.20;;;6.70;80.50;;;;;;6327088;28;20476;-60
2022/04/11 06:03:14;;;;;;;6.03;3.90;;;7.60;79.50;;;;;;6327169;28;20473;-61
2022/04/11 06:06:18;;;;;;;4.30;2.90;;;9.00;74.60;;;;;;6327409;28;20484;-62
2022/04/11 06:09:21;;;;;;;4.93;3.13;;;10.30;68.90;;;;;;6326531;28;20998;-62
2022/04/11 06:12:26;;;;;;;3.87;2.87;;;11.60;64.00;;;;;;6327350;28;20479;-62
2022/04/11 06:15:29;;;;;;;5.90;3.10;;;12.60;58.70;;;;;;6327159;28;20468;-62
2022/04/11 06:18:32;;;;;;;6.30;3.83;;;13.50;55.80;;;;;;6326804;28;20468;-62
2022/04/11 06:21:35;;;;;;;2.30;2.10;;;14.40;53.00;;;;;;6326824;28;20495;-63
2022/04/11 06:24:38;;;;;;;3.40;2.30;;;15.30;50.10;;;;;;6327207;28;20468;-63
2022/04/11 06:27:43;;;;;;;2.20;2.03;;;16.30;47.10;;;;;;6327870;28;20465;-63
2022/04/11 06:30:46;;;;;;;5.63;2.17;;;17.20;44.10;;;;;;6327263;28;20479;-62
2022/04/11 06:33:49;;;;;;;2.13;1.70;;;17.90;42.10;;;;;;6326361;28;20625;-62
2022/04/11 06:36:53;;;;;;;3.23;1.83;;;18.70;39.70;;;;;;6326108;28;20551;-60
2022/04/11 06:39:58;;;;;;;3.60;2.10;;;19.50;37.70;;;;;;6325921;28;20542;-61
2022/04/11 06:43:02;;;;;;;1.90;1.60;;;20.30;35.40;;;;;;6325773;28;20689;-63
2022/04/11 06:46:05;;;;;;;3.53;1.80;;;21.00;33.60;;;;;;6325979;28;20237;-62
2022/04/11 06:49:08;;;;;;;4.53;2.00;;;21.80;32.30;;;;;;6326226;28;20236;-63
2022/04/11 06:52:11;;;;;;;3.97;2.20;;;22.50;30.80;;;;;;6325842;28;20682;-63
2022/04/11 06:55:15;;;;;;;2.37;2.17;;;22.90;29.80;;;;;;6325706;28;20735;-61
2022/04/11 06:58:19;;;;;;;4.63;2.80;;;23.30;29.10;;;;;;6325873;28;20226;-61
2022/04/11 07:01:22;;;;;;;1.80;1.70;;;23.90;28.40;;;;;;6325197;28;20222;-60
2022/04/11 07:04:26;;;;;;;2.47;2.27;;;24.70;27.10;;;;;;6325494;28;20235;-60
2022/04/11 07:07:29;;;;;;;6.43;2.87;;;25.40;26.00;;;;;;6325743;28;20226;-63
2022/04/11 07:10:32;;;;;;;3.03;2.40;;;26.00;25.30;;;;;;6321060;28;20238;-62
2022/04/11 07:13:37;;;;;;;2.10;1.90;;;26.50;24.60;;;;;;6325450;28;20230;-62
2022/04/11 07:16:40;;;;;;;2.07;1.87;;;26.80;23.60;;;;;;6324713;28;20526;-62
2022/04/11 07:19:43;;;;;;;2.67;2.00;;;27.40;23.30;;;;;;6322631;28;20217;-62
2022/04/11 07:22:46;;;;;;;2.20;1.73;;;27.60;23.80;;;;;;6323807;28;20233;-61
2022/04/11 07:25:49;;;;;;;2.80;2.50;;;27.70;23.00;;;;;;6324978;28;20236;-62
2022/04/11 07:28:57;;;;;;;2.30;2.00;;;27.70;22.80;;;;;;6324772;28;20545;-62
2022/04/11 07:32:01;;;;;;;2.23;2.03;;;28.50;22.40;;;;;;6324476;28;20553;-62
2022/04/11 07:35:05;;;;;;;5.10;2.47;;;29.70;21.30;;;;;;6324680;28;20229;-61
2022/04/11 07:38:08;;;;;;;2.97;2.40;;;30.90;20.40;;;;;;6324917;28;20548;-63
2022/04/11 07:41:11;;;;;;;3.50;2.33;;;28.10;20.50;;;;;;6325107;28;20230;-63
2022/04/11 07:44:16;;;;;;;2.73;2.53;;;28.10;21.70;;;;;;6324568;28;20248;-63
2022/04/11 07:47:19;;;;;;;4.60;1.80;;;29.80;20.60;;;;;;6324545;28;20583;-61
2022/04/11 07:50:22;;;;;;;2.50;2.30;;;30.40;19.80;;;;;;6325181;28;20210;-61
2022/04/11 07:53:25;;;;;;;2.03;1.83;;;31.50;19.20;;;;;;6324215;28;20650;-61
2022/04/11 07:56:29;;;;;;;7.22;6.53;;;32.50;18.20;;;;;;6324744;28;20205;-62
2022/04/11 07:59:33;;;;;;;4.15;3.85;;;33.20;17.90;;;;;;6324306;28;20194;-63
2022/04/11 08:02:37;;;;;;;2.83;1.73;;;34.30;17.40;;;;;;6321960;28;20234;-62
2022/04/11 08:05:40;;;;;;;2.55;1.95;;;34.30;16.60;;;;;;6324434;28;20352;-63
2022/04/11 08:08:46;;;;;;;2.20;1.60;;;32.80;17.00;;;;;;6325277;28;20240;-62
2022/04/11 08:11:49;;;;;;;1.90;1.80;;;33.90;16.70;;;;;;6315122;28;20244;-66
2022/04/11 08:14:54;;;;;;;1.95;1.70;;;34.80;16.30;;;;;;6325407;28;20229;-63
2022/04/11 08:17:57;;;;;;;2.50;1.95;;;35.90;16.10;;;;;;6321072;28;20221;-61
2022/04/11 08:21:01;;;;;;;3.03;2.50;;;36.30;15.50;;;;;;6311703;28;20233;-60
2022/04/11 08:24:05;;;;;;;2.25;1.90;;;35.90;15.10;;;;;;6322693;28;20237;-62
2022/04/11 08:27:09;;;;;;;1.80;1.60;;;36.90;15.00;;;;;;6324065;28;20240;-61
2022/04/11 08:30:14;;;;;;;2.50;2.13;;;37.40;14.20;;;;;;6322947;28;20700;-61
2022/04/11 08:33:17;;;;;;;2.42;2.22;;;37.50;14.20;;;;;;6325470;28;20233;-63
2022/04/11 08:36:20;;;;;;;2.80;2.20;;;36.10;14.10;;;;;;6323781;28;20526;-62
2022/04/11 08:39:24;;;;;;;3.15;2.60;;;35.50;14.60;;;;;;6322580;28;20224;-62
2022/04/11 08:42:27;;;;;;;2.38;2.17;;;35.80;15.00;;;;;;6326786;28;20222;-61
2022/04/11 08:45:32;;;;;;;2.10;1.90;;;37.10;14.50;;;;;;6327159;28;20670;-64
2022/04/11 08:48:35;;;;;;;2.45;1.90;;;36.90;14.40;;;;;;6327004;28;20234;-65
2022/04/11 08:51:46;;;;;;;1.98;1.77;;;38.00;13.40;;;;;;6328860;28;20260;-64
2022/04/11 08:54:49;;;;;;;1.80;1.70;;;39.60;13.10;;;;;;6329586;28;20248;-66
2022/04/11 08:58:05;;;;;;;3.30;2.13;;;40.70;12.80;;;;;;6327983;28;20222;-63
2022/04/11 09:01:10;;;;;;;2.38;2.28;;;41.20;12.30;;;;;;6327014;28;20218;-63
2022/04/11 09:04:13;;;;;;;3.08;2.50;;;41.50;12.10;;;;;;6326620;28;20222;-64
2022/04/11 09:07:16;;;;;;;2.67;2.17;;;41.70;11.60;;;;;;6328082;28;20233;-65
2022/04/11 09:10:21;;;;;;;2.85;2.17;;;41.50;11.70;;;;;;6329564;28;20236;-65
2022/04/11 09:13:24;;;;;;;2.67;2.08;;;42.40;11.50;;;;;;6326941;28;20233;-63
2022/04/11 09:16:42;;;;;;;1.60;1.50;;;42.00;10.80;;;;;;6321848;28;20222;-62
2022/04/11 09:19:45;;;;;;;3.20;2.08;;;41.40;10.50;;;;;;6328794;28;20230;-64
2022/04/11 09:22:59;;;;;;;2.15;1.95;;;41.70;11.10;;;;;;6285779;28;1299922;-64
2022/04/11 09:26:16;;;;;;;2.00;1.77;;;42.30;10.90;;;;;;6331241;28;20214;-64
2022/04/11 09:29:19;;;;;;;1.85;1.75;;;43.10;10.80;;;;;;6331786;28;20536;-63
2022/04/11 09:32:23;;;;;;;1.92;1.83;;;43.10;10.60;;;;;;6327458;28;20218;-63
2022/04/11 09:35:28;;;;;;;3.25;1.73;;;40.30;10.80;;;;;;6328229;28;20198;-63
2022/04/11 09:38:37;;;;;;;2.03;1.80;;;39.60;11.40;;;;;;6328416;28;20520;-64
2022/04/11 09:41:43;;;;;;;2.42;1.70;;;38.30;11.20;;;;;;6328622;28;20670;-64
2022/04/11 09:44:47;;;;;;;1.90;1.80;;;34.90;11.90;;;;;;6328496;28;20240;-66
2022/04/11 09:48:15;;;;;;;2.40;1.98;;;33.70;13.30;;;;;;6325983;28;20226;-61
2022/04/11 09:51:19;;;;;;;2.25;1.85;;;32.40;13.70;;;;;;6326625;28;20242;-63
2022/04/11 09:54:26;;;;;;;3.33;2.58;;;29.70;14.80;;;;;;6326203;28;20674;-63
2022/04/11 09:57:31;;;;;;;1.87;1.77;;;28.40;15.90;;;;;;6327752;28;20230;-63
2022/04/11 10:00:37;;;;;;;1.87;1.70;;;27.80;16.30;;;;;;6329854;28;20233;-63
2022/04/11 10:03:42;;;;;;;2.33;2.13;;;26.60;17.40;;;;;;6329621;28;20355;-63
2022/04/11 10:06:46;;;;;;;2.13;1.93;;;24.90;18.00;;;;;;6330379;28;20508;-63
2022/04/11 10:09:50;;;;;;;2.63;2.00;;;23.20;19.50;;;;;;6331603;28;20249;-62
2022/04/11 10:12:53;;;;;;;1.87;1.77;;;22.40;19.90;;;;;;6329959;28;20227;-62
2022/04/11 10:15:59;;;;;;;1.70;1.60;;;22.00;20.90;;;;;;6327780;28;20233;-64
2022/04/11 10:19:05;;;;;;;2.37;2.17;;;21.50;21.20;;;;;;6323842;28;20230;-62
2022/04/11 10:22:17;;;;;;;2.20;1.73;;;20.80;22.00;;;;;;6326230;28;20705;-61
2022/04/11 10:25:21;;;;;;;1.70;1.57;;;20.40;22.30;;;;;;6327486;28;20226;-63
2022/04/11 10:28:25;;;;;;;1.53;1.43;;;20.00;23.40;;;;;;6328157;28;20218;-62
2022/04/11 10:31:36;;;;;;;2.17;1.97;;;19.70;22.80;;;;;;6329593;28;20232;-62
2022/04/11 10:34:53;;;;;;;3.03;1.53;;;19.30;23.00;;;;;;6325951;28;20230;-62
2022/04/11 10:38:07;;;;;;;2.17;2.00;;;18.90;23.40;;;;;;6328921;28;20230;-61
2022/04/11 10:41:10;;;;;;;1.90;1.63;;;18.30;24.10;;;;;;6325360;28;20219;-60
2022/04/11 10:44:31;;;;;;;1.60;1.50;;;17.70;24.70;;;;;;6325417;28;20219;-60
2022/04/11 10:47:35;;;;;;;1.93;1.83;;;17.70;25.30;;;;;;6322587;28;20199;-60
2022/04/11 10:50:42;;;;;;;1.87;1.67;;;17.90;25.10;;;;;;6325069;28;20468;-60
2022/04/11 10:54:16;;;;;;;1.90;1.80;;;17.60;25.10;;;;;;6327077;28;20241;-60
2022/04/11 10:57:41;;;;;;;2.10;1.90;;;17.70;25.00;;;;;;6327091;28;20405;-60
2022/04/11 11:00:44;;;;;;;1.97;1.87;;;17.50;24.80;;;;;;6326621;28;20465;-60
2022/04/11 11:04:16;;;;;;;2.23;1.60;;;17.20;25.50;;;;;;6328332;28;20481;-61
2022/04/11 11:07:29;;;;;;;2.03;1.77;;;17.60;25.20;;;;;;6325690;28;20959;-60
2022/04/11 11:10:40;;;;;;;1.90;1.80;;;17.40;26.00;;;;;;6326129;28;20803;-60
2022/04/11 11:13:44;;;;;;;2.57;1.90;;;17.50;26.10;;;;;;6326028;28;20476;-62
2022/04/11 11:16:59;;;;;;;2.30;2.10;;;17.40;25.90;;;;;;6325847;28;20460;-62
2022/04/11 11:20:08;;;;;;;1.93;1.73;;;17.50;26.40;;;;;;6325391;28;20534;-63
2022/04/11 11:23:17;;;;;;;5.03;1.97;;;17.60;25.50;;;;;;6324493;28;20475;-62
2022/04/11 11:26:20;;;;;;;2.00;1.80;;;17.80;25.40;;;;;;6332699;28;20455;-63
2022/04/11 11:29:25;;;;;;;2.53;1.83;;;17.80;25.20;;;;;;6351125;28;20472;-61
2022/04/11 11:32:31;;;;;;;1.80;1.50;;;17.50;25.40;;;;;;6351127;28;20468;-59
2022/04/11 11:35:35;;;;;;;1.70;1.27;;;17.80;25.20;;;;;;6351872;28;20710;-62
2022/04/11 11:38:39;;;;;;;1.57;1.47;;;17.90;25.50;;;;;;6350713;28;20934;-61
2022/04/11 11:41:43;;;;;;;4.47;2.50;;;18.00;25.60;;;;;;6351898;28;20717;-62
2022/04/11 11:44:48;;;;;;;2.17;1.97;;;18.10;26.00;;;;;;6361543;28;20236;-61
2022/04/11 11:47:52;;;;;;;7.20;2.20;;;18.20;26.10;;;;;;6352108;28;20940;-62
2022/04/11 11:50:57;;;;;;;2.00;1.80;;;18.10;26.00;;;;;;6335487;28;20230;-60
2022/04/11 11:54:01;;;;;;;7.00;1.87;;;18.10;26.20;;;;;;6324644;28;20230;-59
2022/04/11 11:57:15;;;;;;;2.80;2.13;;;18.20;27.00;;;;;;6326866;28;20811;-63
2022/04/11 12:00:18;;;;;;;2.27;2.07;;;18.30;25.80;;;;;;6326276;28;20542;-62
2022/04/11 12:06:42;;;;;;;3.70;1.90;;;18.60;25.60;;;;;;6321917;28;20230;-65
2022/04/11 12:09:47;;;;;;;2.90;2.03;;;18.70;25.20;;;;;;6321446;28;20279;-63
2022/04/11 12:12:53;;;;;;;2.40;2.03;;;18.80;26.10;;;;;;6321265;28;20230;-64
2022/04/11 12:16:08;;;;;;;3.00;2.30;;;18.10;26.60;;;;;;6324197;28;20284;-64
2022/04/11 12:19:11;;;;;;;2.00;1.90;;;17.90;27.40;;;;;;6326718;28;20809;-64
2022/04/11 12:22:16;;;;;;;2.80;2.60;;;18.10;27.00;;;;;;6328099;28;20658;-63
2022/04/11 12:25:27;;;;;;;3.70;2.17;;;18.20;27.00;;;;;;6329288;28;20472;-64
2022/04/11 12:28:36;;;;;;;2.20;2.00;;;18.50;26.20;;;;;;6304536;28;20545;-64
2022/04/11 12:31:39;;;;;;;2.10;1.83;;;18.70;26.40;;;;;;6303129;28;20239;-64
2022/04/11 12:34:44;;;;;;;3.60;1.90;;;18.80;26.90;;;;;;6303988;28;20245;-61
2022/04/11 12:37:49;;;;;;;2.20;1.90;;;18.70;26.60;;;;;;6303044;28;20575;-63
2022/04/11 12:40:54;;;;;;;3.00;2.53;;;18.60;27.60;;;;;;6303153;28;20227;-62
2022/04/11 12:44:14;;;;;;;2.27;2.07;;;17.90;27.70;;;;;;6325707;28;20344;-62
2022/04/11 12:47:17;;;;;;;2.30;2.10;;;17.80;27.80;;;;;;6325069;28;20472;-61
2022/04/11 12:50:22;;;;;;;2.50;2.30;;;17.80;28.10;;;;;;6328294;28;20435;-61
2022/04/11 12:53:31;;;;;;;2.50;2.30;;;17.40;28.80;;;;;;6327306;28;20237;-61
2022/04/11 12:56:40;;;;;;;3.23;2.67;;;17.70;28.90;;;;;;6324620;28;20653;-61
2022/04/11 12:59:44;;;;;;;3.97;2.67;;;17.80;28.30;;;;;;6328219;28;20471;-61
2022/04/11 13:02:47;;;;;;;3.77;3.10;;;17.60;28.50;;;;;;6327967;28;20537;-61
2022/04/11 13:05:50;;;;;;;2.90;2.70;;;17.20;29.20;;;;;;6328012;28;20464;-61
2022/04/11 13:08:53;;;;;;;2.70;2.50;;;17.10;29.70;;;;;;6328215;28;20468;-61
2022/04/11 13:11:57;;;;;;;2.53;2.10;;;17.20;29.50;;;;;;6327621;28;20777;-62
2022/04/11 13:15:10;;;;;;;5.40;2.70;;;17.20;29.40;;;;;;6328129;28;20472;-63
2022/04/11 13:18:24;;;;;;;2.33;2.00;;;17.70;29.10;;;;;;6327090;28;20468;-64
2022/04/11 13:21:27;;;;;;;2.80;2.60;;;18.00;28.90;;;;;;6327196;28;20480;-63
2022/04/11 13:24:31;;;;;;;4.00;3.57;;;17.60;29.30;;;;;;6327645;28;20572;-62
2022/04/11 13:27:35;;;;;;;2.60;2.40;;;17.40;29.30;;;;;;6345360;28;20476;-62
2022/04/11 13:30:38;;;;;;;2.63;2.43;;;17.30;29.50;;;;;;6344645;28;20467;-62
2022/04/11 13:33:42;;;;;;;3.03;2.73;;;17.40;29.50;;;;;;6352565;28;20967;-61
2022/04/11 13:36:45;;;;;;;3.20;2.50;;;17.30;29.80;;;;;;6327642;28;20469;-62
2022/04/11 13:39:48;;;;;;;3.50;3.30;;;17.40;29.80;;;;;;6327232;28;20476;-62
2022/04/11 13:42:54;;;;;;;3.40;2.53;;;17.50;29.80;;;;;;6327157;28;20495;-62
2022/04/11 13:46:13;;;;;;;3.03;2.60;;;17.60;29.60;;;;;;6327202;28;20476;-61
2022/04/11 13:49:17;;;;;;;2.33;2.13;;;17.70;29.90;;;;;;6326998;28;20468;-61
2022/04/11 13:52:21;;;;;;;2.97;2.77;;;17.60;30.10;;;;;;6326377;28;20964;-61
2022/04/11 13:55:24;;;;;;;3.60;2.90;;;17.20;30.40;;;;;;6326766;28;20484;-63
2022/04/11 13:58:29;;;;;;;4.03;2.07;;;16.70;30.90;;;;;;6327009;28;20968;-62
2022/04/11 14:01:32;;;;;;;3.30;2.97;;;16.70;31.30;;;;;;6326851;28;20464;-61
2022/04/11 14:04:35;;;;;;;2.60;2.40;;;16.50;31.30;;;;;;6326439;28;20496;-62
2022/04/11 14:07:38;;;;;;;2.73;2.53;;;16.50;31.50;;;;;;6325076;28;20480;-61
2022/04/11 14:10:47;;;;;;;2.63;2.43;;;16.70;31.00;;;;;;6325233;28;20476;-63
2022/04/11 14:13:51;;;;;;;2.60;2.40;;;16.80;31.40;;;;;;6325072;28;20479;-62
2022/04/11 14:16:54;;;;;;;4.03;2.07;;;16.50;31.10;;;;;;6324915;28;20500;-63
2022/04/11 14:19:57;;;;;;;3.30;2.40;;;16.50;31.60;;;;;;6325147;28;20476;-62
2022/04/11 14:23:01;;;;;;;2.57;2.37;;;16.40;32.10;;;;;;6325918;28;20485;-62
2022/04/11 14:26:04;;;;;;;2.80;2.60;;;16.50;32.60;;;;;;6326409;28;20899;-61
2022/04/11 14:29:09;;;;;;;3.10;2.90;;;16.30;32.80;;;;;;6326592;28;20822;-62
2022/04/11 14:32:12;;;;;;;3.00;2.70;;;16.20;32.60;;;;;;6327914;28;20992;-62
2022/04/11 14:35:15;;;;;;;3.07;2.87;;;16.00;33.00;;;;;;6321630;28;20479;-62
2022/04/11 14:38:18;;;;;;;2.97;2.77;;;16.00;33.10;;;;;;6321448;28;20462;-63
2022/04/11 14:41:21;;;;;;;3.37;3.07;;;15.90;33.50;;;;;;6325946;28;20437;-62
2022/04/11 14:44:26;;;;;;;3.20;2.47;;;15.80;33.80;;;;;;6326239;28;20471;-62
2022/04/11 14:47:29;;;;;;;2.93;2.73;;;15.80;34.00;;;;;;6325676;28;20783;-61
2022/04/11 14:50:33;;;;;;;5.20;2.40;;;15.70;33.70;;;;;;6326133;28;20451;-61
2022/04/11 14:53:37;;;;;;;3.70;3.40;;;15.70;34.10;;;;;;6325507;28;20472;-62
2022/04/11 14:56:40;;;;;;;3.67;2.87;;;15.80;34.10;;;;;;6326373;28;20467;-62
2022/04/11 14:59:45;;;;;;;3.10;2.90;;;15.90;34.40;;;;;;6325708;28;20484;-61
2022/04/11 15:02:49;;;;;;;3.03;2.83;;;16.00;34.40;;;;;;6325500;28;20933;-61
2022/04/11 15:05:52;;;;;;;3.37;2.97;;;16.00;34.60;;;;;;6324691;28;20464;-62
2022/04/11 15:08:55;;;;;;;6.17;3.47;;;16.00;34.70;;;;;;6324231;28;20936;-61
2022/04/11 15:11:58;;;;;;;2.87;2.67;;;15.80;34.40;;;;;;6324767;28;20952;-61
2022/04/11 15:15:03;;;;;;;2.63;2.43;;;15.70;34.80;;;;;;6322333;28;20461;-62
2022/04/11 15:18:07;;;;;;;3.03;2.77;;;15.80;34.80;;;;;;6325838;28;20468;-61
2022/04/11 15:21:10;;;;;;;3.40;3.10;;;15.90;34.80;;;;;;6325176;28;20570;-61
2022/04/11 15:24:13;;;;;;;3.67;3.47;;;16.10;35.30;;;;;;6325317;28;20476;-63
2022/04/11 15:27:16;;;;;;;3.87;3.57;;;16.20;34.50;;;;;;6324800;28;20975;-62
2022/04/11 15:30:21;;;;;;;4.47;3.50;;;15.90;34.80;;;;;;6324819;28;20469;-61
2022/04/11 15:33:24;;;;;;;3.97;3.57;;;15.70;35.80;;;;;;6324494;28;20476;-61
2022/04/11 15:36:27;;;;;;;4.03;3.73;;;15.70;36.20;;;;;;6322982;28;20976;-61
2022/04/11 15:39:30;;;;;;;6.40;4.03;;;15.80;36.20;;;;;;6313858;28;20535;-62
2022/04/11 15:42:33;;;;;;;2.97;2.77;;;15.80;36.40;;;;;;6323343;28;20914;-62
2022/04/11 15:45:38;;;;;;;5.03;3.87;;;16.00;36.50;;;;;;6323106;28;20491;-61
2022/04/11 15:48:41;;;;;;;4.30;3.43;;;16.00;36.60;;;;;;6323116;28;20468;-62
2022/04/11 15:51:44;;;;;;;3.50;3.20;;;16.20;36.50;;;;;;6323689;28;20525;-62
2022/04/11 15:54:47;;;;;;;3.87;3.47;;;15.90;36.80;;;;;;6322522;28;20485;-60
2022/04/11 15:57:51;;;;;;;4.70;3.40;;;16.00;36.90;;;;;;6322907;28;20792;-59
2022/04/11 16:00:55;;;;;;;3.77;2.93;;;16.10;36.60;;;;;;6322860;28;20464;-60
2022/04/11 16:04:07;;;;;;;3.63;2.83;;;15.90;36.80;;;;;;6322482;28;20796;-60
2022/04/11 16:07:10;;;;;;;3.53;3.23;;;16.10;37.30;;;;;;6322793;28;20921;-62
2022/04/11 16:10:14;;;;;;;3.30;3.00;;;16.10;37.30;;;;;;6322764;28;20464;-62